Date,TemperatureHighF,TemperatureAvgF,TemperatureLowF,DewpointHighF,DewpointAvgF,DewpointLowF,HumidityHigh,HumidityAvg,HumidityLow,PressureMaxIn,PressureMinIn,WindSpeedMaxMPH,WindSpeedAvgMPH,GustSpeedMaxMPH,PrecipitationSumIn
2013-2-1,60,36,27,-100,-100,-100,0,0,100,0.00,40.00,0,-999,0,0.00
2013-2-2,60,36,29,-100,-100,-100,0,0,100,0.00,40.00,0,-999,0,0.00
2013-2-3,62,38,26,-100,-100,-100,0,0,100,0.00,40.00,0,-999,0,0.00
2013-2-4,60,40,26,-100,-100,-100,0,0,100,0.00,40.00,0,-999,0,0.00
2013-2-5,67,43,30,-100,-100,-100,0,0,100,0.00,40.00,0,-999,0,0.00
2013-2-6,64,48,29,-100,-100,-100,0,0,100,0.00,40.00,0,-999,0,0.00
2013-2-7,57,46,36,-100,-100,-100,0,0,100,0.00,40.00,0,-999,0,0.00
2013-2-8,57,38,25,-100,-100,-100,0,0,100,0.00,40.00,0,-999,0,0.00
2013-2-9,60,42,32,-100,-100,-100,0,0,100,0.00,40.00,0,-999,0,0.00
2013-2-10,42,36,27,-100,-100,-100,0,0,100,0.00,40.00,0,-999,0,0.00
2013-2-11,44,34,24,-100,-100,-100,0,0,100,0.00,40.00,0,-999,0,0.00
2013-2-12,48,31,17,-100,-100,-100,0,0,100,0.00,40.00,0,-999,0,0.00
2013-2-13,59,33,20,-100,-100,-100,0,0,100,0.00,40.00,0,-999,0,0.00
2013-2-14,52,34,30,-100,-100,-100,0,0,100,0.00,40.00,0,-999,0,0.00
2013-2-15,44,34,27,-100,-100,-100,0,0,100,0.00,40.00,0,-999,0,0.00
2013-2-16,63,43,22,-100,-100,-100,0,0,100,0.00,40.00,0,-999,0,0.00
2013-2-17,65,45,26,-100,-100,-100,0,0,100,0.00,40.00,0,-999,0,0.00
2013-2-18,48,36,22,-100,-100,-100,0,0,100,0.00,40.00,0,-999,0,0.00
2013-2-19,53,34,19,-100,-100,-100,0,0,100,0.00,40.00,0,-999,0,0.00
2013-2-20,36,33,31,-100,-100,-100,0,0,100,0.00,40.00,0,-999,0,0.00
2013-2-21,34,29,22,-100,-100,-100,0,0,100,0.00,40.00,0,-999,0,0.00
2013-2-22,41,28,17,-100,-100,-100,0,0,100,0.00,40.00,0,-999,0,0.00
2013-2-23,60,36,19,-100,-100,-100,0,0,100,0.00,40.00,0,-999,0,0.00
2013-2-24,34,32,29,-100,-100,-100,0,0,100,0.00,40.00,0,-999,0,0.00
2013-2-25,39,34,29,-100,-100,-100,0,0,100,0.00,40.00,0,-999,0,0.00
2013-2-26,38,28,16,-100,-100,-100,0,0,100,0.00,40.00,0,-999,0,0.00
2013-2-27,42,35,26,-100,-100,-100,0,0,100,0.00,40.00,0,-999,0,0.00
2013-2-28,49,37,22,-100,-100,-100,0,0,100,0.00,40.00,0,-999,0,0.00